CheckWX is a tool to help pilots better visualize weather data.  It is not intended as a substitute for an official pre-flight weather briefing.

05:42:14 UTC

EPWR TAF
Copernicus Wrocław Airport
Wrocław, Poland
TAF EPWR 250230Z 2503/2603 28010KT 9999 BKN040 BECMG 2508/2511 29015G25KT BKN014 TEMPO 2511/2521 4000 SHRA SHGS BR BKN007 BKN012CB PROB40 TEMPO 2511/2516 30022G36KT 2000 TSRA TSGS BKN008CB BECMG 2516/2518 30012KT BECMG 2520/2522 BKN008

Mar-25@
03:00 UTC

Mar-25 @ 03:00 UTC

Mar-25@
08:00 UTC

Mar-25 @ 08:00 UTC

TAF EPWR 250230Z 2503/2603 28010KT 9999 BKN040
Wind
  • 280° at 10 KTS
Cloud Levels
  • Broken at 4,000' AGL

Mar-25@
08:00 UTC

Mar-25 @ 08:00 UTC

Mar-25@
16:00 UTC

Mar-25 @ 16:00 UTC

BECMG 2508/2511 29015G25KT BKN014

Becoming

Becoming Conditions expected by Mon, Mar 25, 2019 @ 11:00 UTC

Wind
  • 290° at 15 KTS
  • {Gusting to 25 KTS
Cloud Levels
  • Broken at 1,400' AGL

Mar-25@
11:00 UTC

Mar-25 @ 11:00 UTC

Mar-25@
16:00 UTC

Mar-25 @ 16:00 UTC

PROB40 TEMPO 2511/2516 30022G36KT 2000 TSRA TSGS BKN008CB

Temporary - 40% Likelihood

Temporary - 40% Likelihood during this time.

Wind
  • 300° at 22 KTS
  • {Gusting to 36 KTS
Conditions
Thunderstorm, Rain, Thunderstorm, Small hail
Cloud Levels
  • Broken at 800' AGL

Mar-25@
11:00 UTC

Mar-25 @ 11:00 UTC

Mar-25@
21:00 UTC

Mar-25 @ 21:00 UTC

TEMPO 2511/2521 4000 SHRA SHGS BR BKN007 BKN012CB

Temporary

Temporary Changes expected for less than half the time period

Conditions
Rain, Small hail, Mist
Cloud Levels
  • Broken at 700' AGL
  • Broken at 1,200' AGL

Mar-25@
16:00 UTC

Mar-25 @ 16:00 UTC

Mar-25@
20:00 UTC

Mar-25 @ 20:00 UTC

BECMG 2516/2518 30012KT

Becoming

Becoming Conditions expected by Mon, Mar 25, 2019 @ 18:00 UTC

Wind
  • 300° at 12 KTS
Cloud Levels
  • Broken at 1,400' AGL

Mar-25@
20:00 UTC

Mar-25 @ 20:00 UTC

Mar-26@
03:00 UTC

Mar-26 @ 03:00 UTC

BECMG 2520/2522 BKN008

Becoming

Becoming Conditions expected by Mon, Mar 25, 2019 @ 22:00 UTC

Wind
  • 300° at 12 KTS
Cloud Levels
  • Broken at 800' AGL